sensor_id;sensor_type;location;lat;lon;timestamp;pressure;altitude;pressure_sealevel;temperature;humidity
9189;BME280;34313;50.780;6.084;2023-06-10T00:02:10;99271.31;;;18.57;nan
9189;BME280;34313;50.780;6.084;2023-06-10T00:04:35;99273.59;;;18.51;nan
9189;BME280;34313;50.780;6.084;2023-06-10T00:07:05;99268.13;;;18.43;nan
9189;BME280;34313;50.780;6.084;2023-06-10T00:09:40;99274.44;;;18.42;nan
9189;BME280;34313;50.780;6.084;2023-06-10T00:12:06;99277.56;;;18.38;nan
9189;BME280;34313;50.780;6.084;2023-06-10T00:14:33;99279.34;;;18.37;nan
9189;BME280;34313;50.780;6.084;2023-06-10T00:16:58;99274.91;;;18.28;nan
9189;BME280;34313;50.780;6.084;2023-06-10T00:19:24;99278.84;;;18.24;nan
9189;BME280;34313;50.780;6.084;2023-06-10T00:21:55;99270.44;;;18.19;nan
9189;BME280;34313;50.780;6.084;2023-06-10T00:24:20;99279.41;;;18.18;nan
9189;BME280;34313;50.780;6.084;2023-06-10T00:26:46;99271.59;;;18.06;nan
9189;BME280;34313;50.780;6.084;2023-06-10T00:29:11;99277.34;;;18.11;nan
9189;BME280;34313;50.780;6.084;2023-06-10T00:31:37;99279.16;;;18.11;nan
9189;BME280;34313;50.780;6.084;2023-06-10T00:34:03;99277.19;;;18.13;nan
9189;BME280;34313;50.780;6.084;2023-06-10T00:36:29;99275.78;;;18.09;nan
9189;BME280;34313;50.780;6.084;2023-06-10T00:38:55;99282.13;;;18.08;nan
9189;BME280;34313;50.780;6.084;2023-06-10T00:41:20;99277.19;;;18.03;nan
9189;BME280;34313;50.780;6.084;2023-06-10T00:43:45;99277.78;;;17.97;nan
9189;BME280;34313;50.780;6.084;2023-06-10T00:46:11;99276.63;;;17.90;nan
9189;BME280;34313;50.780;6.084;2023-06-10T00:48:38;99284.63;;;17.90;nan
9189;BME280;34313;50.780;6.084;2023-06-10T00:51:05;99277.59;;;17.79;nan
9189;BME280;34313;50.780;6.084;2023-06-10T00:53:31;99278.75;;;17.76;nan
9189;BME280;34313;50.780;6.084;2023-06-10T00:55:57;99272.16;;;17.71;nan
9189;BME280;34313;50.780;6.084;2023-06-10T00:58:24;99273.00;;;17.71;nan
9189;BME280;34313;50.780;6.084;2023-06-10T01:00:50;99278.72;;;17.67;nan
9189;BME280;34313;50.780;6.084;2023-06-10T01:03:16;99279.88;;;17.64;nan
9189;BME280;34313;50.780;6.084;2023-06-10T01:05:42;99272.41;;;17.58;nan
9189;BME280;34313;50.780;6.084;2023-06-10T01:08:33;99283.50;;;17.63;nan
9189;BME280;34313;50.780;6.084;2023-06-10T01:11:01;99279.16;;;17.62;nan
9189;BME280;34313;50.780;6.084;2023-06-10T01:13:29;99278.75;;;17.57;nan
9189;BME280;34313;50.780;6.084;2023-06-10T01:15:58;99281.69;;;17.54;nan
9189;BME280;34313;50.780;6.084;2023-06-10T01:18:29;99277.75;;;17.48;nan
9189;BME280;34313;50.780;6.084;2023-06-10T01:20:55;99274.81;;;17.42;nan
9189;BME280;34313;50.780;6.084;2023-06-10T01:23:21;99277.88;;;17.37;nan
9189;BME280;34313;50.780;6.084;2023-06-10T01:25:59;99273.69;;;17.34;nan
9189;BME280;34313;50.780;6.084;2023-06-10T01:29:12;99279.97;;;17.33;nan
9189;BME280;34313;50.780;6.084;2023-06-10T01:31:48;99276.88;;;17.28;nan
9189;BME280;34313;50.780;6.084;2023-06-10T01:34:17;99269.84;;;17.17;nan
9189;BME280;34313;50.780;6.084;2023-06-10T01:36:48;99273.66;;;17.15;nan
9189;BME280;34313;50.780;6.084;2023-06-10T01:39:15;99267.47;;;17.05;nan
9189;BME280;34313;50.780;6.084;2023-06-10T01:41:42;99271.09;;;17.04;nan
9189;BME280;34313;50.780;6.084;2023-06-10T01:44:09;99264.22;;;17.01;nan
9189;BME280;34313;50.780;6.084;2023-06-10T01:46:34;99272.66;;;17.06;nan
9189;BME280;34313;50.780;6.084;2023-06-10T01:49:00;99273.03;;;17.01;nan
9189;BME280;34313;50.780;6.084;2023-06-10T01:51:25;99274.31;;;16.97;nan
9189;BME280;34313;50.780;6.084;2023-06-10T01:53:51;99281.84;;;16.92;nan
9189;BME280;34313;50.780;6.084;2023-06-10T01:56:16;99278.50;;;16.90;nan
9189;BME280;34313;50.780;6.084;2023-06-10T01:58:43;99268.59;;;16.81;nan
9189;BME280;34313;50.780;6.084;2023-06-10T02:01:09;99276.75;;;16.79;nan
9189;BME280;34313;50.780;6.084;2023-06-10T02:03:35;99282.91;;;16.80;nan
9189;BME280;34313;50.780;6.084;2023-06-10T02:06:00;99289.31;;;16.77;nan
9189;BME280;34313;50.780;6.084;2023-06-10T02:08:25;99284.13;;;16.76;nan
9189;BME280;34313;50.780;6.084;2023-06-10T02:10:52;99283.72;;;16.71;nan
9189;BME280;34313;50.780;6.084;2023-06-10T02:13:17;99288.44;;;16.67;nan
9189;BME280;34313;50.780;6.084;2023-06-10T02:15:43;99292.22;;;16.64;nan
9189;BME280;34313;50.780;6.084;2023-06-10T02:18:08;99281.38;;;16.56;nan
9189;BME280;34313;50.780;6.084;2023-06-10T02:20:34;99275.63;;;16.51;nan
9189;BME280;34313;50.780;6.084;2023-06-10T02:23:00;99284.47;;;16.52;nan
9189;BME280;34313;50.780;6.084;2023-06-10T02:25:25;99284.47;;;16.52;nan
9189;BME280;34313;50.780;6.084;2023-06-10T02:27:50;99280.78;;;16.43;nan
9189;BME280;34313;50.780;6.084;2023-06-10T02:30:16;99288.47;;;16.46;nan
9189;BME280;34313;50.780;6.084;2023-06-10T02:32:41;99278.38;;;16.40;nan
9189;BME280;34313;50.780;6.084;2023-06-10T02:35:06;99297.56;;;16.43;nan
9189;BME280;34313;50.780;6.084;2023-06-10T02:37:32;99292.97;;;16.45;nan
9189;BME280;34313;50.780;6.084;2023-06-10T02:39:57;99289.47;;;16.45;nan
9189;BME280;34313;50.780;6.084;2023-06-10T02:42:22;99292.97;;;16.45;nan
9189;BME280;34313;50.780;6.084;2023-06-10T02:44:48;99295.88;;;16.42;nan
9189;BME280;34313;50.780;6.084;2023-06-10T02:47:13;99293.78;;;16.46;nan
9189;BME280;34313;50.780;6.084;2023-06-10T02:49:38;99292.13;;;16.45;nan
9189;BME280;34313;50.780;6.084;2023-06-10T02:52:04;99288.31;;;16.38;nan
9189;BME280;34313;50.780;6.084;2023-06-10T02:54:29;99276.78;;;16.28;nan
9189;BME280;34313;50.780;6.084;2023-06-10T02:56:55;99289.13;;;16.29;nan
9189;BME280;34313;50.780;6.084;2023-06-10T02:59:21;99293.44;;;16.30;nan
9189;BME280;34313;50.780;6.084;2023-06-10T03:01:47;99292.16;;;16.24;nan
9189;BME280;34313;50.780;6.084;2023-06-10T03:04:12;99288.09;;;16.20;nan
9189;BME280;34313;50.780;6.084;2023-06-10T03:06:40;99295.78;;;16.23;nan
9189;BME280;34313;50.780;6.084;2023-06-10T03:09:10;99296.06;;;16.20;nan
9189;BME280;34313;50.780;6.084;2023-06-10T03:11:36;99292.94;;;16.15;nan
9189;BME280;34313;50.780;6.084;2023-06-10T03:14:01;99296.56;;;16.14;nan
9189;BME280;34313;50.780;6.084;2023-06-10T03:16:27;99285.59;;;16.07;nan
9189;BME280;34313;50.780;6.084;2023-06-10T03:18:52;99295.97;;;16.10;nan
9189;BME280;34313;50.780;6.084;2023-06-10T03:21:18;99299.88;;;16.06;nan
9189;BME280;34313;50.780;6.084;2023-06-10T03:23:43;99298.75;;;16.09;nan
9189;BME280;34313;50.780;6.084;2023-06-10T03:26:08;99301.56;;;16.07;nan
9189;BME280;34313;50.780;6.084;2023-06-10T03:28:35;99296.09;;;16.09;nan
9189;BME280;34313;50.780;6.084;2023-06-10T03:31:00;99299.88;;;16.06;nan
9189;BME280;34313;50.780;6.084;2023-06-10T03:33:25;99309.97;;;16.12;nan
9189;BME280;34313;50.780;6.084;2023-06-10T03:35:51;99314.22;;;16.15;nan
9189;BME280;34313;50.780;6.084;2023-06-10T03:38:16;99318.16;;;16.20;nan
9189;BME280;34313;50.780;6.084;2023-06-10T03:40:42;99313.44;;;16.24;nan
9189;BME280;34313;50.780;6.084;2023-06-10T03:43:07;99319.19;;;16.29;nan
9189;BME280;34313;50.780;6.084;2023-06-10T03:45:33;99312.88;;;16.30;nan
9189;BME280;34313;50.780;6.084;2023-06-10T03:47:58;99314.22;;;16.36;nan
9189;BME280;34313;50.780;6.084;2023-06-10T03:50:24;99318.84;;;16.43;nan
9189;BME280;34313;50.780;6.084;2023-06-10T03:52:50;99325.34;;;16.51;nan
9189;BME280;34313;50.780;6.084;2023-06-10T03:55:16;99321.44;;;16.55;nan
9189;BME280;34313;50.780;6.084;2023-06-10T03:57:42;99317.41;;;16.60;nan
9189;BME280;34313;50.780;6.084;2023-06-10T04:00:08;99309.03;;;16.65;nan
9189;BME280;34313;50.780;6.084;2023-06-10T04:02:36;99318.72;;;16.76;nan
9189;BME280;34313;50.780;6.084;2023-06-10T04:05:01;99311.19;;;16.81;nan
9189;BME280;34313;50.780;6.084;2023-06-10T04:07:27;99316.34;;;16.94;nan
9189;BME280;34313;50.780;6.084;2023-06-10T04:09:53;99308.22;;;16.95;nan
9189;BME280;34313;50.780;6.084;2023-06-10T04:12:18;99320.44;;;17.08;nan
9189;BME280;34313;50.780;6.084;2023-06-10T04:14:44;99309.81;;;17.17;nan
9189;BME280;34313;50.780;6.084;2023-06-10T04:17:09;99323.16;;;17.37;nan
9189;BME280;34313;50.780;6.084;2023-06-10T04:19:35;99323.44;;;17.44;nan
9189;BME280;34313;50.780;6.084;2023-06-10T04:22:01;99329.94;;;17.61;nan
9189;BME280;34313;50.780;6.084;2023-06-10T04:24:27;99328.00;;;17.72;nan
9189;BME280;34313;50.780;6.084;2023-06-10T04:26:53;99335.69;;;17.85;nan
9189;BME280;34313;50.780;6.084;2023-06-10T04:29:18;99335.16;;;17.91;nan
9189;BME280;34313;50.780;6.084;2023-06-10T04:31:43;99337.97;;;18.09;nan
9189;BME280;34313;50.780;6.084;2023-06-10T04:34:11;99330.78;;;18.20;nan
9189;BME280;34313;50.780;6.084;2023-06-10T04:36:36;99343.97;;;18.41;nan
9189;BME280;34313;50.780;6.084;2023-06-10T04:39:01;99346.88;;;18.47;nan
9189;BME280;34313;50.780;6.084;2023-06-10T04:41:27;99349.50;;;18.67;nan
9189;BME280;34313;50.780;6.084;2023-06-10T04:43:52;99340.78;;;18.75;nan
9189;BME280;34313;50.780;6.084;2023-06-10T04:46:18;99342.31;;;18.87;nan
9189;BME280;34313;50.780;6.084;2023-06-10T04:48:44;99326.25;;;18.97;nan
9189;BME280;34313;50.780;6.084;2023-06-10T04:51:12;99332.50;;;19.15;nan
9189;BME280;34313;50.780;6.084;2023-06-10T04:53:39;99337.81;;;19.43;nan
9189;BME280;34313;50.780;6.084;2023-06-10T04:56:04;99329.00;;;20.14;nan
9189;BME280;34313;50.780;6.084;2023-06-10T04:58:30;99323.09;;;22.24;nan
9189;BME280;34313;50.780;6.084;2023-06-10T05:00:55;99328.34;;;25.27;nan
9189;BME280;34313;50.780;6.084;2023-06-10T05:03:20;99329.41;;;28.27;nan
9189;BME280;34313;50.780;6.084;2023-06-10T05:05:46;99327.78;;;30.27;nan
9189;BME280;34313;50.780;6.084;2023-06-10T05:08:11;99315.38;;;32.10;nan
9189;BME280;34313;50.780;6.084;2023-06-10T05:10:36;99328.06;;;33.80;nan
9189;BME280;34313;50.780;6.084;2023-06-10T05:13:01;99321.22;;;35.23;nan
9189;BME280;34313;50.780;6.084;2023-06-10T05:15:28;99330.06;;;35.80;nan
9189;BME280;34313;50.780;6.084;2023-06-10T05:17:56;99322.44;;;37.04;nan
9189;BME280;34313;50.780;6.084;2023-06-10T05:20:22;99332.09;;;38.16;nan
9189;BME280;34313;50.780;6.084;2023-06-10T05:22:47;99336.59;;;39.19;nan
9189;BME280;34313;50.780;6.084;2023-06-10T05:25:13;99330.97;;;39.84;nan
9189;BME280;34313;50.780;6.084;2023-06-10T05:27:38;99333.19;;;40.21;nan
9189;BME280;34313;50.780;6.084;2023-06-10T05:30:05;99333.25;;;40.11;nan
9189;BME280;34313;50.780;6.084;2023-06-10T05:32:32;99321.56;;;40.78;nan
9189;BME280;34313;50.780;6.084;2023-06-10T05:34:58;99327.13;;;41.45;nan
9189;BME280;34313;50.780;6.084;2023-06-10T05:37:25;99335.28;;;41.74;nan
9189;BME280;34313;50.780;6.084;2023-06-10T05:39:50;99329.72;;;42.12;nan
9189;BME280;34313;50.780;6.084;2023-06-10T05:42:16;99324.22;;;41.36;nan
9189;BME280;34313;50.780;6.084;2023-06-10T05:44:41;99324.38;;;41.45;nan
9189;BME280;34313;50.780;6.084;2023-06-10T05:47:07;99328.63;;;40.36;nan
9189;BME280;34313;50.780;6.084;2023-06-10T05:49:32;99323.84;;;40.17;nan
9189;BME280;34313;50.780;6.084;2023-06-10T05:51:57;99326.25;;;41.07;nan
9189;BME280;34313;50.780;6.084;2023-06-10T05:54:24;99327.47;;;40.95;nan
9189;BME280;34313;50.780;6.084;2023-06-10T05:56:49;99327.94;;;41.84;nan
9189;BME280;34313;50.780;6.084;2023-06-10T05:59:15;99328.84;;;41.79;nan
9189;BME280;34313;50.780;6.084;2023-06-10T06:01:40;99335.38;;;42.21;nan
9189;BME280;34313;50.780;6.084;2023-06-10T06:04:05;99330.78;;;41.98;nan
9189;BME280;34313;50.780;6.084;2023-06-10T06:06:31;99327.47;;;41.95;nan
9189;BME280;34313;50.780;6.084;2023-06-10T06:08:56;99321.22;;;42.56;nan
9189;BME280;34313;50.780;6.084;2023-06-10T06:11:21;99329.53;;;43.11;nan
9189;BME280;34313;50.780;6.084;2023-06-10T06:13:47;99333.31;;;43.43;nan
9189;BME280;34313;50.780;6.084;2023-06-10T06:16:13;99330.09;;;41.87;nan
9189;BME280;34313;50.780;6.084;2023-06-10T06:18:38;99325.47;;;40.18;nan
9189;BME280;34313;50.780;6.084;2023-06-10T06:21:04;99317.75;;;40.50;nan
9189;BME280;34313;50.780;6.084;2023-06-10T06:23:29;99322.94;;;39.43;nan
9189;BME280;34313;50.780;6.084;2023-06-10T06:25:55;99318.59;;;39.37;nan
9189;BME280;34313;50.780;6.084;2023-06-10T06:28:20;99329.19;;;39.09;nan
9189;BME280;34313;50.780;6.084;2023-06-10T06:30:47;99331.63;;;36.03;nan
9189;BME280;34313;50.780;6.084;2023-06-10T06:33:13;99332.81;;;33.84;nan
9189;BME280;34313;50.780;6.084;2023-06-10T06:35:38;99331.09;;;32.62;nan
9189;BME280;34313;50.780;6.084;2023-06-10T06:38:04;99333.66;;;32.92;nan
9189;BME280;34313;50.780;6.084;2023-06-10T06:40:29;99338.38;;;35.18;nan
9189;BME280;34313;50.780;6.084;2023-06-10T06:42:55;99336.38;;;36.45;nan
9189;BME280;34313;50.780;6.084;2023-06-10T06:45:20;99335.94;;;37.06;nan
9189;BME280;34313;50.780;6.084;2023-06-10T06:47:45;99335.38;;;38.54;nan
9189;BME280;34313;50.780;6.084;2023-06-10T06:50:10;99337.38;;;39.24;nan
9189;BME280;34313;50.780;6.084;2023-06-10T06:52:36;99330.59;;;39.01;nan
9189;BME280;34313;50.780;6.084;2023-06-10T06:55:04;99347.75;;;38.52;nan
9189;BME280;34313;50.780;6.084;2023-06-10T06:57:29;99349.16;;;37.14;nan
9189;BME280;34313;50.780;6.084;2023-06-10T06:59:58;99346.03;;;36.90;nan
9189;BME280;34313;50.780;6.084;2023-06-10T07:02:23;99341.16;;;38.68;nan
9189;BME280;34313;50.780;6.084;2023-06-10T07:04:48;99346.72;;;40.52;nan
9189;BME280;34313;50.780;6.084;2023-06-10T07:07:14;99342.06;;;41.01;nan
9189;BME280;34313;50.780;6.084;2023-06-10T07:09:43;99342.59;;;41.27;nan
9189;BME280;34313;50.780;6.084;2023-06-10T07:12:42;99326.72;;;41.90;nan
9189;BME280;34313;50.780;6.084;2023-06-10T07:15:34;99343.34;;;41.71;nan
9189;BME280;34313;50.780;6.084;2023-06-10T07:17:59;99349.69;;;42.09;nan
9189;BME280;34313;50.780;6.084;2023-06-10T07:20:51;99341.22;;;43.22;nan
9189;BME280;34313;50.780;6.084;2023-06-10T07:23:16;99331.38;;;45.05;nan
9189;BME280;34313;50.780;6.084;2023-06-10T07:25:42;99331.72;;;43.87;nan
9189;BME280;34313;50.780;6.084;2023-06-10T07:28:07;99347.38;;;42.77;nan
9189;BME280;34313;50.780;6.084;2023-06-10T07:30:32;99348.72;;;43.72;nan
9189;BME280;34313;50.780;6.084;2023-06-10T07:32:57;99348.84;;;44.26;nan
9189;BME280;34313;50.780;6.084;2023-06-10T07:35:23;99351.00;;;44.37;nan
9189;BME280;34313;50.780;6.084;2023-06-10T07:37:48;99344.88;;;43.59;nan
9189;BME280;34313;50.780;6.084;2023-06-10T07:40:14;99344.41;;;44.25;nan
9189;BME280;34313;50.780;6.084;2023-06-10T07:42:39;99341.56;;;43.93;nan
9189;BME280;34313;50.780;6.084;2023-06-10T07:45:05;99354.97;;;44.45;nan
9189;BME280;34313;50.780;6.084;2023-06-10T07:47:33;99343.47;;;43.70;nan
9189;BME280;34313;50.780;6.084;2023-06-10T07:49:58;99337.34;;;44.90;nan
9189;BME280;34313;50.780;6.084;2023-06-10T07:52:24;99342.78;;;45.88;nan
9189;BME280;34313;50.780;6.084;2023-06-10T07:54:55;99335.72;;;44.89;nan
9189;BME280;34313;50.780;6.084;2023-06-10T07:57:20;99347.66;;;44.04;nan
9189;BME280;34313;50.780;6.084;2023-06-10T07:59:46;99345.03;;;43.12;nan
9189;BME280;34313;50.780;6.084;2023-06-10T08:02:11;99334.13;;;42.74;nan
9189;BME280;34313;50.780;6.084;2023-06-10T08:04:37;99315.88;;;41.93;nan
9189;BME280;34313;50.780;6.084;2023-06-10T08:07:02;99349.16;;;43.01;nan
9189;BME280;34313;50.780;6.084;2023-06-10T08:09:28;99342.25;;;43.12;nan
9189;BME280;34313;50.780;6.084;2023-06-10T08:11:53;99343.88;;;42.58;nan
9189;BME280;34313;50.780;6.084;2023-06-10T08:14:19;99336.38;;;44.86;nan
9189;BME280;34313;50.780;6.084;2023-06-10T08:16:44;99341.47;;;45.85;nan
9189;BME280;34313;50.780;6.084;2023-06-10T08:19:09;99338.19;;;45.83;nan
9189;BME280;34313;50.780;6.084;2023-06-10T08:21:35;99344.84;;;44.49;nan
9189;BME280;34313;50.780;6.084;2023-06-10T08:24:05;99333.28;;;44.87;nan
9189;BME280;34313;50.780;6.084;2023-06-10T08:26:30;99352.63;;;46.58;nan
9189;BME280;34313;50.780;6.084;2023-06-10T08:28:56;99345.44;;;45.00;nan
9189;BME280;34313;50.780;6.084;2023-06-10T08:31:21;99333.63;;;44.54;nan
9189;BME280;34313;50.780;6.084;2023-06-10T08:33:47;99340.72;;;45.27;nan
9189;BME280;34313;50.780;6.084;2023-06-10T08:36:12;99334.63;;;44.99;nan
9189;BME280;34313;50.780;6.084;2023-06-10T08:38:38;99335.47;;;44.99;nan
9189;BME280;34313;50.780;6.084;2023-06-10T08:41:05;99338.41;;;46.51;nan
9189;BME280;34313;50.780;6.084;2023-06-10T08:43:37;99341.06;;;45.17;nan
9189;BME280;34313;50.780;6.084;2023-06-10T08:46:08;99346.16;;;44.43;nan
9189;BME280;34313;50.780;6.084;2023-06-10T08:48:34;99350.47;;;44.27;nan
9189;BME280;34313;50.780;6.084;2023-06-10T08:51:04;99336.66;;;44.44;nan
9189;BME280;34313;50.780;6.084;2023-06-10T08:53:30;99347.34;;;45.40;nan
9189;BME280;34313;50.780;6.084;2023-06-10T08:55:58;99337.00;;;44.20;nan
9189;BME280;34313;50.780;6.084;2023-06-10T08:58:26;99344.09;;;43.67;nan
9189;BME280;34313;50.780;6.084;2023-06-10T09:00:52;99341.47;;;41.28;nan
9189;BME280;34313;50.780;6.084;2023-06-10T09:03:18;99339.59;;;40.99;nan
9189;BME280;34313;50.780;6.084;2023-06-10T09:05:43;99340.81;;;41.36;nan
9189;BME280;34313;50.780;6.084;2023-06-10T09:08:09;99328.50;;;39.82;nan
9189;BME280;34313;50.780;6.084;2023-06-10T09:10:35;99342.63;;;40.15;nan
9189;BME280;34313;50.780;6.084;2023-06-10T09:13:00;99325.78;;;38.16;nan
9189;BME280;34313;50.780;6.084;2023-06-10T09:15:26;99340.44;;;39.23;nan
9189;BME280;34313;50.780;6.084;2023-06-10T09:17:52;99339.25;;;40.53;nan
9189;BME280;34313;50.780;6.084;2023-06-10T09:20:18;99342.22;;;38.72;nan
9189;BME280;34313;50.780;6.084;2023-06-10T09:22:43;99330.53;;;39.11;nan
9189;BME280;34313;50.780;6.084;2023-06-10T09:25:10;99326.06;;;38.25;nan
9189;BME280;34313;50.780;6.084;2023-06-10T09:27:52;99334.28;;;37.73;nan
9189;BME280;34313;50.780;6.084;2023-06-10T09:30:32;99329.47;;;37.27;nan
9189;BME280;34313;50.780;6.084;2023-06-10T09:33:01;99331.25;;;36.59;nan
9189;BME280;34313;50.780;6.084;2023-06-10T09:35:28;99335.88;;;35.12;nan
9189;BME280;34313;50.780;6.084;2023-06-10T09:37:56;99331.88;;;35.42;nan
9189;BME280;34313;50.780;6.084;2023-06-10T09:40:22;99335.13;;;35.93;nan
9189;BME280;34313;50.780;6.084;2023-06-10T09:42:56;99325.91;;;36.74;nan
9189;BME280;34313;50.780;6.084;2023-06-10T09:45:23;99328.03;;;36.24;nan
9189;BME280;34313;50.780;6.084;2023-06-10T09:47:52;99332.38;;;36.20;nan
9189;BME280;34313;50.780;6.084;2023-06-10T09:50:19;99343.78;;;35.30;nan
9189;BME280;34313;50.780;6.084;2023-06-10T09:52:46;99336.41;;;35.85;nan
9189;BME280;34313;50.780;6.084;2023-06-10T09:55:12;99328.53;;;34.39;nan
9189;BME280;34313;50.780;6.084;2023-06-10T09:57:37;99337.56;;;34.96;nan
9189;BME280;34313;50.780;6.084;2023-06-10T10:00:08;99334.72;;;34.01;nan
9189;BME280;34313;50.780;6.084;2023-06-10T10:02:44;99331.28;;;32.84;nan
9189;BME280;34313;50.780;6.084;2023-06-10T10:05:12;99328.09;;;32.16;nan
9189;BME280;34313;50.780;6.084;2023-06-10T10:07:38;99326.13;;;31.51;nan
9189;BME280;34313;50.780;6.084;2023-06-10T10:10:03;99342.66;;;31.31;nan
9189;BME280;34313;50.780;6.084;2023-06-10T10:12:29;99319.22;;;31.90;nan
9189;BME280;34313;50.780;6.084;2023-06-10T10:14:55;99324.06;;;31.76;nan
9189;BME280;34313;50.780;6.084;2023-06-10T10:17:22;99315.91;;;31.88;nan
9189;BME280;34313;50.780;6.084;2023-06-10T10:19:53;99339.28;;;31.35;nan
9189;BME280;34313;50.780;6.084;2023-06-10T10:22:34;99315.41;;;31.00;nan
9189;BME280;34313;50.780;6.084;2023-06-10T10:25:02;99320.88;;;31.31;nan
9189;BME280;34313;50.780;6.084;2023-06-10T10:27:36;99323.53;;;31.37;nan
9189;BME280;34313;50.780;6.084;2023-06-10T10:30:08;99333.47;;;31.13;nan
9189;BME280;34313;50.780;6.084;2023-06-10T10:32:52;99320.75;;;30.70;nan
9189;BME280;34313;50.780;6.084;2023-06-10T10:35:22;99327.19;;;30.25;nan
9189;BME280;34313;50.780;6.084;2023-06-10T10:37:49;99324.69;;;29.98;nan
9189;BME280;34313;50.780;6.084;2023-06-10T10:40:16;99316.03;;;30.08;nan
9189;BME280;34313;50.780;6.084;2023-06-10T10:42:42;99315.84;;;30.03;nan
9189;BME280;34313;50.780;6.084;2023-06-10T10:45:09;99343.75;;;29.92;nan
9189;BME280;34313;50.780;6.084;2023-06-10T10:47:35;99325.28;;;30.01;nan
9189;BME280;34313;50.780;6.084;2023-06-10T10:50:12;99326.78;;;29.65;nan
9189;BME280;34313;50.780;6.084;2023-06-10T10:55:23;99329.44;;;30.03;nan
9189;BME280;34313;50.780;6.084;2023-06-10T10:57:59;99317.44;;;29.02;nan
9189;BME280;34313;50.780;6.084;2023-06-10T11:00:28;99321.84;;;28.90;nan
9189;BME280;34313;50.780;6.084;2023-06-10T11:03:00;99332.72;;;29.41;nan
9189;BME280;34313;50.780;6.084;2023-06-10T11:05:42;99320.75;;;29.11;nan
9189;BME280;34313;50.780;6.084;2023-06-10T11:08:10;99319.47;;;29.13;nan
9189;BME280;34313;50.780;6.084;2023-06-10T11:10:40;99323.09;;;28.94;nan
9189;BME280;34313;50.780;6.084;2023-06-10T11:13:26;99332.91;;;28.95;nan
9189;BME280;34313;50.780;6.084;2023-06-10T11:15:52;99320.25;;;28.69;nan
9189;BME280;34313;50.780;6.084;2023-06-10T11:18:23;99317.88;;;28.92;nan
9189;BME280;34313;50.780;6.084;2023-06-10T11:28:43;99318.59;;;28.54;nan
9189;BME280;34313;50.780;6.084;2023-06-10T11:31:32;99306.91;;;28.60;nan
9189;BME280;34313;50.780;6.084;2023-06-10T11:33:59;99320.66;;;28.59;nan
9189;BME280;34313;50.780;6.084;2023-06-10T11:36:26;99316.88;;;28.73;nan
9189;BME280;34313;50.780;6.084;2023-06-10T11:39:03;99309.13;;;28.77;nan
9189;BME280;34313;50.780;6.084;2023-06-10T11:41:29;99300.59;;;28.73;nan
9189;BME280;34313;50.780;6.084;2023-06-10T11:43:57;99298.78;;;29.19;nan
9189;BME280;34313;50.780;6.084;2023-06-10T11:46:25;99303.38;;;29.12;nan
9189;BME280;34313;50.780;6.084;2023-06-10T11:48:55;99303.38;;;29.12;nan
9189;BME280;34313;50.780;6.084;2023-06-10T11:51:21;99304.72;;;28.89;nan
9189;BME280;34313;50.780;6.084;2023-06-10T11:53:48;99301.84;;;28.84;nan
9189;BME280;34313;50.780;6.084;2023-06-10T11:56:19;99301.94;;;29.09;nan
9189;BME280;34313;50.780;6.084;2023-06-10T11:58:44;99296.53;;;29.09;nan
9189;BME280;34313;50.780;6.084;2023-06-10T12:01:10;99298.75;;;29.32;nan
9189;BME280;34313;50.780;6.084;2023-06-10T12:03:36;99293.31;;;29.32;nan
9189;BME280;34313;50.780;6.084;2023-06-10T12:06:06;99294.94;;;29.40;nan
9189;BME280;34313;50.780;6.084;2023-06-10T12:08:32;99291.03;;;29.29;nan
9189;BME280;34313;50.780;6.084;2023-06-10T12:10:58;99291.16;;;29.48;nan
9189;BME280;34313;50.780;6.084;2023-06-10T12:13:26;99285.56;;;29.36;nan
9189;BME280;34313;50.780;6.084;2023-06-10T12:15:52;99298.47;;;29.47;nan
9189;BME280;34313;50.780;6.084;2023-06-10T12:18:22;99286.97;;;29.45;nan
9189;BME280;34313;50.780;6.084;2023-06-10T12:20:48;99290.13;;;29.42;nan
9189;BME280;34313;50.780;6.084;2023-06-10T12:23:15;99277.75;;;29.53;nan
9189;BME280;34313;50.780;6.084;2023-06-10T12:25:51;99286.56;;;29.80;nan
9189;BME280;34313;50.780;6.084;2023-06-10T12:28:21;99286.22;;;29.31;nan
9189;BME280;34313;50.780;6.084;2023-06-10T12:30:46;99290.00;;;29.30;nan
9189;BME280;34313;50.780;6.084;2023-06-10T12:33:21;99274.13;;;29.27;nan
9189;BME280;34313;50.780;6.084;2023-06-10T12:35:53;99303.19;;;29.20;nan
9189;BME280;34313;50.780;6.084;2023-06-10T12:38:22;99283.75;;;29.23;nan
9189;BME280;34313;50.780;6.084;2023-06-10T12:40:50;99289.94;;;29.44;nan
9189;BME280;34313;50.780;6.084;2023-06-10T12:43:27;99276.25;;;29.57;nan
9189;BME280;34313;50.780;6.084;2023-06-10T12:45:53;99268.03;;;29.70;nan
9189;BME280;34313;50.780;6.084;2023-06-10T12:48:22;99270.72;;;29.77;nan
9189;BME280;34313;50.780;6.084;2023-06-10T12:50:53;99274.09;;;29.97;nan
9189;BME280;34313;50.780;6.084;2023-06-10T12:53:19;99272.13;;;29.86;nan
9189;BME280;34313;50.780;6.084;2023-06-10T12:55:45;99273.09;;;29.92;nan
9189;BME280;34313;50.780;6.084;2023-06-10T12:58:11;99259.88;;;29.77;nan
9189;BME280;34313;50.780;6.084;2023-06-10T13:00:37;99273.00;;;29.73;nan
9189;BME280;34313;50.780;6.084;2023-06-10T13:03:03;99264.69;;;29.36;nan
9189;BME280;34313;50.780;6.084;2023-06-10T13:05:30;99272.59;;;29.76;nan
9189;BME280;34313;50.780;6.084;2023-06-10T13:07:57;99267.41;;;29.68;nan
9189;BME280;34313;50.780;6.084;2023-06-10T13:10:22;99274.16;;;30.16;nan
9189;BME280;34313;50.780;6.084;2023-06-10T13:12:51;99275.97;;;30.22;nan
9189;BME280;34313;50.780;6.084;2023-06-10T13:15:17;99261.94;;;30.50;nan
9189;BME280;34313;50.780;6.084;2023-06-10T13:17:44;99259.28;;;30.62;nan
9189;BME280;34313;50.780;6.084;2023-06-10T13:20:11;99266.47;;;30.57;nan
9189;BME280;34313;50.780;6.084;2023-06-10T13:22:37;99269.06;;;30.01;nan
9189;BME280;34313;50.780;6.084;2023-06-10T13:25:03;99258.97;;;30.08;nan
9189;BME280;34313;50.780;6.084;2023-06-10T13:27:34;99261.94;;;30.50;nan
9189;BME280;34313;50.780;6.084;2023-06-10T13:30:08;99244.19;;;30.48;nan
9189;BME280;34313;50.780;6.084;2023-06-10T13:32:35;99252.81;;;30.63;nan
9189;BME280;34313;50.780;6.084;2023-06-10T13:35:07;99255.66;;;30.50;nan
9189;BME280;34313;50.780;6.084;2023-06-10T13:37:33;99256.66;;;30.37;nan
9189;BME280;34313;50.780;6.084;2023-06-10T13:39:58;99251.72;;;30.64;nan
9189;BME280;34313;50.780;6.084;2023-06-10T13:42:24;99258.34;;;30.94;nan
9189;BME280;34313;50.780;6.084;2023-06-10T13:44:51;99250.75;;;31.14;nan